Historyczne dane pomiarowe

Dodano dane terminowe – wersja testowa.

Dane z okresu 1951-2019

Wersja bazy: 1.34 [2019-03-16, lista zmian], aktualizacja planowana na 2019-04-15

Dane meteo z obszaru Polski uzyskane na podstawie danych udostępnionych przez Instytut Meteorologii i Gospodarki Wodnej – Państwowy Instytut Badawczy.

 

Wybierz Datę:    

       

TemperaturaWilgotnośćWiatrCiśnienieOpadyŚniegCzas trwania zjawisk
 Stacja t tx tn tng RH VA  wxwx mslp ppp RRR   cm mm wxwxwxwxwxwxwx
1983-08-14 12.7 16.7 7.7 5.4-- 7.7 1.7---- 6.2------------
1983-08-13 14.8 19.6 10.5 9.9-- 8.0 4.0---- 7.7------------
1983-08-12 19.7 26.2 13.5 12.9-- 6.0 1.3---- 5.0------------
1983-08-11 19.7 26.2 14.5 12.9-- 4.7 2.7---- 0.0------------
1983-08-10 18.4 25.0 12.3 9.1-- 4.3 1.0---- 2.1------------
1983-08-09 18.3 26.4 13.9 11.3-- 8.0 2.0---- 27.0------------
1983-08-08 17.2 23.1 14.2 13.3-- 7.3 2.0---- 2.4------------
1983-08-07 16.8 21.2 13.0 13.4-- 8.0 1.0---- 3.1------------
1983-08-06 14.4 19.9 11.5 9.9-- 7.3 1.3---- 2.9------------
1983-08-05 13.0 17.4 9.5 8.3-- 8.0 2.0---- 0.0------------
1983-08-04 12.2 18.1 11.1 11.1-- 8.0 3.0---- 0.3------------
1983-08-03 19.3 25.0 16.8 14.8-- 8.0 0.7---- 7.1------------
1983-08-02 19.9 28.6 11.6 9.8-- 5.7 0.7---- 1.0------------
1983-08-01 18.3 27.0 5.7 6.8-- 0.0 3.7---- 0.0------------
1983-07-31 16.5 23.2 7.2 4.3-- 0.0 0.7---- 0.0------------
1983-07-30 18.4 23.5 13.6 10.4-- 6.0 4.0---- 0.0------------
1983-07-29 18.5 24.4 12.1 9.3-- 6.3 2.7---- 0.0------------
1983-07-28 22.4 27.8 15.6 14.9-- 5.3 3.3---- 0.0------------
1983-07-27 22.1 32.0 13.6 10.0-- 2.7 0.0---- 0.0------------
1983-07-26 19.9 27.0 12.7 8.8-- 2.0 2.3---- 0.0------------
1983-07-25 15.9 20.0 11.1 7.7-- 8.0 1.7---- 0.0------------
1983-07-24 15.8 19.3 12.5 10.7-- 8.0 1.7---- 0.8------------
1983-07-23 16.9 20.8 13.0 13.1-- 5.0 2.0---- 0.0------------
1983-07-22 12.8 14.4 9.7 8.0-- 8.0 2.7---- 0.0------------
1983-07-21 13.4 17.0 10.5 8.8-- 3.3 2.7---- 1.6------------
1983-07-20 17.3 22.1 13.5 16.7-- 8.0 2.7---- 0.0------------
1983-07-19 21.7 28.6 13.2 20.4-- 5.3 1.3---- 15.7------------
1983-07-18 21.4 28.9 11.5 9.8-- 2.0 0.3---- 0.0------------
1983-07-17 20.7 26.0 13.7 12.1-- 4.3 1.0---- 0.0------------
1983-07-16 20.3 27.0 11.2 9.9-- 4.7 1.0---- 0.0------------
1983-07-15 18.9 25.0 12.1 10.7-- 1.7 2.0---- 0.0------------
1983-07-14 17.4 21.8 14.9 14.9-- 8.0 3.0---- 8.3------------
1983-07-13 18.0 25.5 14.6 12.5-- 6.0 3.3---- 25.1------------
1983-07-12 17.8 23.1 15.2 12.2-- 6.7 2.0---- 2.5------------
1983-07-11 20.2 27.0 14.2 12.2-- 7.7 1.7---- 7.7------------
1983-07-10 21.5 29.0 12.2 9.9-- 1.7 1.7---- 0.0------------
1983-07-09 20.7 28.5 10.1 7.8-- 0.0 1.3---- 0.0------------
1983-07-08 19.6 27.9 8.4 8.1-- 0.0 1.3---- 0.0------------
1983-07-07 21.1 28.8 10.4 8.4-- 1.3 1.3---- 0.0------------
1983-07-06 20.4 28.2 10.2 7.3-- 0.0 0.7---- 0.0------------
1983-07-05 19.2 26.6 10.7 8.9-- 3.3 1.3---- 0.0------------
1983-07-04 19.1 26.4 9.9 7.3-- 3.3 1.0---- 0.0------------
1983-07-03 18.2 24.5 10.2 7.8-- 2.3 1.0---- 0.0------------
1983-07-02 18.2 23.5 12.7 9.8-- 7.0 3.0---- 0.0------------
1983-07-01 17.8 25.4 8.2 6.8-- 4.0 0.7---- 0.0------------
1983-06-30 14.5 22.9 4.7 3.3-- 0.0 1.7---- 0.0------------
1983-06-29 14.9 19.2 7.0 5.9-- 3.0 2.3---- 0.0------------
1983-06-28 16.1 21.1 13.3 11.7-- 8.0 3.3---- 0.9------------
1983-06-27 20.2 27.5 11.1 10.3-- 7.3 3.7---- 9.6------------
1983-06-26 20.1 25.0 14.7 14.4-- 8.0 1.3---- 0.6------------
1983-06-25 18.4 27.4 9.7 5.8-- 3.3 2.0---- 2.2------------
1983-06-24 16.7 25.7 3.8 1.8-- 0.0 2.3---- 0.0------------
1983-06-23 13.8 20.5 3.1 0.8-- 0.0 2.0---- 0.0------------
1983-06-22 14.6 19.5 10.7 8.9-- 2.0 2.7---- 0.0------------
1983-06-21 18.7 25.0 10.9 8.3-- 3.7 0.7---- 0.0------------
1983-06-20 18.8 23.7 15.8 14.9-- 7.0 1.3---- 0.1------------
1983-06-19 15.9 20.4 12.2 11.3-- 8.0 3.3---- 0.5------------
1983-06-18 12.4 14.4 10.2 8.8-- 8.0 2.3---- 13.3------------
1983-06-17 12.7 16.7 9.2 8.4-- 8.0 2.7---- 6.1------------
1983-06-16 12.4 15.5 10.2 9.9-- 8.0 5.0---- 0.4------------
339.5 ms

 

Źródłem pochodzenia danych jest Instytut Meteorologii i Gospodarki Wodnej – Państwowy Instytut Badawczy. Dane Instytutu Meteorologii i Gospodarki Wodnej – Państwowego Instytutu Badawczego zostały przetworzone.

Dane źródłowe można odnaleźć na stronie https://dane.imgw.pl